Time;durP1;ratioP1;P1;durP2;ratioP2;P2;SDS_P1;SDS_P2;PMS_P1;PMS_P2;Temp;Humidity;BMP_temperature;BMP_pressure;BME280_temperature;BME280_humidity;BME280_pressure;Samples;Min_cycle;Max_cycle;Signal;HPM_P1;HPM_P2
2023/06/26 00:01:06;;;;;;;9.23;7.07;;;18.70;99.90;;;;;;4977408;28;20758;-77
2023/06/26 00:03:33;;;;;;;10.50;9.50;;;18.60;99.90;;;;;;4976313;28;20631;-77
2023/06/26 00:06:01;;;;;;;10.23;9.23;;;18.60;99.90;;;;;;4974539;28;20203;-76
2023/06/26 00:08:28;;;;;;;8.53;7.03;;;18.60;99.90;;;;;;4974402;28;20296;-76
2023/06/26 00:10:55;;;;;;;8.93;7.20;;;18.50;99.90;;;;;;4975626;28;20204;-76
2023/06/26 00:13:25;;;;;;;10.80;9.70;;;18.50;99.90;;;;;;4974548;28;20231;-76
2023/06/26 00:15:52;;;;;;;9.60;8.60;;;18.40;99.90;;;;;;4991456;28;20204;-75
2023/06/26 00:18:19;;;;;;;8.63;7.47;;;18.40;99.90;;;;;;4974455;28;20252;-77
2023/06/26 00:20:45;;;;;;;9.73;8.73;;;18.40;99.90;;;;;;4975747;28;20605;-77
2023/06/26 00:23:16;;;;;;;7.67;6.57;;;18.40;99.90;;;;;;4977312;28;20271;-76
2023/06/26 00:25:43;;;;;;;8.57;6.83;;;18.30;99.90;;;;;;4979582;28;20208;-76
2023/06/26 00:28:10;;;;;;;7.70;6.90;;;18.30;99.90;;;;;;4983941;28;20220;-77
2023/06/26 00:30:39;;;;;;;9.73;8.83;;;18.30;99.90;;;;;;4980542;28;20200;-77
2023/06/26 00:33:06;;;;;;;10.27;9.37;;;18.30;99.90;;;;;;4978188;28;20733;-76
2023/06/26 00:35:33;;;;;;;11.03;10.03;;;18.20;99.90;;;;;;4977994;28;20207;-76
2023/06/26 00:38:00;;;;;;;10.90;9.80;;;18.20;99.90;;;;;;4979147;28;20197;-77
2023/06/26 00:40:27;;;;;;;10.57;9.57;;;18.20;99.90;;;;;;4980195;28;20802;-78
2023/06/26 00:42:54;;;;;;;11.67;9.27;;;18.20;99.90;;;;;;4982863;28;20222;-79
2023/06/26 00:45:22;;;;;;;10.53;9.53;;;18.00;99.90;;;;;;4983741;28;20230;-79
2023/06/26 00:47:50;;;;;;;8.80;7.10;;;18.00;99.90;;;;;;4981916;28;20713;-77
2023/06/26 00:50:17;;;;;;;10.73;9.73;;;18.00;99.90;;;;;;4995476;28;20202;-81
2023/06/26 00:52:44;;;;;;;9.97;8.97;;;18.00;99.90;;;;;;4981745;28;20229;-78
2023/06/26 00:55:11;;;;;;;8.80;7.30;;;18.00;99.90;;;;;;4982761;28;20206;-79
2023/06/26 00:57:38;;;;;;;7.97;7.10;;;18.00;99.90;;;;;;4982074;28;20199;-78
2023/06/26 01:00:06;;;;;;;9.20;8.33;;;18.00;99.90;;;;;;4983717;28;20249;-79
2023/06/26 01:02:34;;;;;;;9.60;8.60;;;18.00;99.90;;;;;;4982607;28;20226;-78
2023/06/26 01:05:06;;;;;;;9.77;8.87;;;18.00;99.90;;;;;;4983752;28;20192;-79
2023/06/26 01:07:37;;;;;;;9.43;8.53;;;17.90;99.90;;;;;;4984253;28;20206;-78
2023/06/26 01:10:05;;;;;;;9.87;8.97;;;17.90;99.90;;;;;;4981536;28;20662;-78
2023/06/26 01:12:33;;;;;;;7.73;6.67;;;18.00;99.90;;;;;;4982349;28;20222;-79
2023/06/26 01:15:00;;;;;;;7.40;6.60;;;17.90;99.90;;;;;;5006818;28;20218;-80
2023/06/26 01:17:31;;;;;;;10.03;7.40;;;17.90;99.90;;;;;;5006388;28;20210;-79
2023/06/26 01:19:59;;;;;;;8.17;7.20;;;17.90;99.90;;;;;;4981897;28;20331;-77
2023/06/26 01:22:32;;;;;;;8.70;7.17;;;17.90;99.90;;;;;;4983558;28;20335;-78
2023/06/26 01:25:11;;;;;;;8.07;7.27;;;17.90;99.90;;;;;;4983192;28;20197;-78
2023/06/26 01:27:42;;;;;;;8.83;7.63;;;17.90;99.90;;;;;;4982344;28;20236;-79
2023/06/26 01:30:10;;;;;;;11.43;10.33;;;17.90;99.90;;;;;;4993971;28;20252;-80
2023/06/26 01:32:37;;;;;;;10.60;9.60;;;17.90;99.90;;;;;;5007290;28;20274;-79
2023/06/26 01:35:07;;;;;;;10.73;9.63;;;17.80;99.90;;;;;;4980468;28;20199;-77
2023/06/26 01:37:34;;;;;;;11.00;9.97;;;17.80;99.90;;;;;;4982976;28;20199;-77
2023/06/26 01:40:05;;;;;;;10.63;9.63;;;17.80;99.90;;;;;;4982152;28;20309;-79
2023/06/26 01:42:32;;;;;;;10.40;9.40;;;17.80;99.90;;;;;;4982842;28;20222;-80
2023/06/26 01:45:05;;;;;;;10.43;9.43;;;17.80;99.90;;;;;;4981512;28;20294;-77
2023/06/26 01:47:35;;;;;;;9.97;8.97;;;17.80;99.90;;;;;;4982322;28;20229;-78
2023/06/26 01:50:10;;;;;;;10.30;9.30;;;17.90;99.90;;;;;;4982256;28;20193;-78
2023/06/26 01:52:42;;;;;;;10.90;9.80;;;17.90;99.90;;;;;;4985348;28;20230;-78
2023/06/26 01:55:18;;;;;;;10.77;9.67;;;17.90;99.90;;;;;;4981158;28;20205;-79
2023/06/26 01:57:47;;;;;;;10.70;9.70;;;17.90;99.90;;;;;;4981478;28;20212;-79
2023/06/26 02:00:18;;;;;;;10.37;9.43;;;17.90;99.90;;;;;;4980741;28;20202;-78
2023/06/26 02:02:45;;;;;;;10.10;9.10;;;17.90;99.90;;;;;;4983495;28;20236;-78
2023/06/26 02:05:14;;;;;;;9.37;7.80;;;17.90;99.90;;;;;;4980978;28;20210;-80
2023/06/26 02:07:41;;;;;;;8.20;7.07;;;17.90;99.90;;;;;;4980815;28;20213;-80
2023/06/26 02:10:09;;;;;;;9.00;7.90;;;17.90;99.90;;;;;;4980721;28;20563;-78
2023/06/26 02:12:36;;;;;;;8.67;7.77;;;17.90;99.90;;;;;;4982046;28;20225;-80
2023/06/26 02:15:04;;;;;;;8.87;7.97;;;17.90;99.90;;;;;;4996753;28;20213;-77
2023/06/26 02:17:32;;;;;;;8.80;7.90;;;17.90;99.90;;;;;;4981720;28;20199;-77
2023/06/26 02:19:59;;;;;;;8.53;7.13;;;17.90;99.90;;;;;;4973886;28;20268;-79
2023/06/26 02:22:25;;;;;;;8.90;7.57;;;17.80;99.90;;;;;;4981990;28;20229;-79
2023/06/26 02:24:52;;;;;;;9.30;8.30;;;17.80;99.90;;;;;;4982260;28;20769;-77
2023/06/26 02:27:19;;;;;;;8.77;7.63;;;17.80;99.90;;;;;;4981333;28;20206;-78
2023/06/26 02:29:46;;;;;;;8.50;7.50;;;17.80;99.90;;;;;;4979219;28;20202;-79
2023/06/26 02:32:13;;;;;;;8.97;7.67;;;17.80;99.90;;;;;;4980664;28;20218;-79
2023/06/26 02:34:41;;;;;;;9.20;7.90;;;17.80;99.90;;;;;;4980916;28;20866;-78
2023/06/26 02:37:08;;;;;;;10.30;9.30;;;17.70;99.90;;;;;;4981361;28;20281;-80
2023/06/26 02:39:35;;;;;;;10.47;8.90;;;17.70;99.90;;;;;;4979451;28;20199;-80
2023/06/26 02:42:02;;;;;;;9.63;8.23;;;17.70;99.90;;;;;;4979029;28;20300;-78
2023/06/26 02:44:29;;;;;;;8.07;7.27;;;17.70;99.90;;;;;;4980810;28;20199;-79
2023/06/26 02:46:56;;;;;;;8.60;7.70;;;17.70;99.90;;;;;;4976887;28;20211;-79
2023/06/26 02:49:23;;;;;;;10.00;8.50;;;17.60;99.90;;;;;;4977823;28;20214;-79
2023/06/26 02:51:51;;;;;;;8.90;7.60;;;17.60;99.90;;;;;;4973934;28;20251;-83
2023/06/26 02:54:26;;;;;;;9.60;8.70;;;17.50;99.90;;;;;;4990421;28;20209;-81
2023/06/26 02:56:56;;;;;;;9.30;8.43;;;17.50;99.90;;;;;;4989151;28;20563;-79
2023/06/26 02:59:28;;;;;;;10.60;9.50;;;17.40;99.90;;;;;;4974313;28;20200;-82
2023/06/26 03:01:55;;;;;;;8.80;7.90;;;17.40;99.90;;;;;;4986490;28;20230;-79
2023/06/26 03:04:29;;;;;;;8.77;7.27;;;17.40;99.90;;;;;;4975636;28;20203;-82
2023/06/26 03:07:05;;;;;;;7.97;7.10;;;17.40;99.90;;;;;;5096397;27;1246603;-82
2023/06/26 03:09:32;;;;;;;7.63;6.50;;;17.40;99.90;;;;;;5109443;28;20197;-81
2023/06/26 03:11:59;;;;;;;7.80;6.93;;;17.40;99.90;;;;;;5102575;28;20200;-81
2023/06/26 03:14:26;;;;;;;7.00;6.00;;;17.40;99.90;;;;;;5088292;28;20207;-82
2023/06/26 03:16:57;;;;;;;10.07;9.07;;;17.30;99.90;;;;;;5106828;28;20638;-82
2023/06/26 03:19:25;;;;;;;7.63;6.63;;;17.30;99.90;;;;;;5079813;28;20198;-80
2023/06/26 03:22:16;;;;;;;7.93;7.13;;;17.30;99.90;;;;;;5082791;28;20271;-80
2023/06/26 03:24:45;;;;;;;8.27;7.20;;;17.20;99.90;;;;;;5109589;28;20205;-81
2023/06/26 03:27:12;;;;;;;8.03;7.23;;;17.20;99.90;;;;;;5082888;28;20228;-81
2023/06/26 03:29:39;;;;;;;8.57;7.63;;;17.20;99.90;;;;;;5094533;28;20265;-82
2023/06/26 03:32:08;;;;;;;7.60;6.80;;;17.20;99.90;;;;;;5096000;28;20223;-82
2023/06/26 03:34:35;;;;;;;8.00;7.13;;;17.20;99.90;;;;;;5085571;28;20202;-82
2023/06/26 03:37:03;;;;;;;8.00;7.20;;;17.10;99.90;;;;;;5087172;28;20190;-81
2023/06/26 03:39:31;;;;;;;8.07;7.20;;;17.10;99.90;;;;;;5092232;28;20194;-82
2023/06/26 03:42:00;;;;;;;8.57;7.60;;;17.20;99.90;;;;;;5106289;28;20214;-81
2023/06/26 03:44:27;;;;;;;7.67;6.47;;;17.10;99.90;;;;;;5081417;28;20228;-80
2023/06/26 03:46:54;;;;;;;9.30;7.97;;;17.10;99.90;;;;;;5086144;28;20217;-81
2023/06/26 03:49:21;;;;;;;9.47;7.60;;;17.10;99.90;;;;;;5085046;28;20217;-81
2023/06/26 03:51:48;;;;;;;7.80;7.00;;;17.10;99.90;;;;;;5088244;28;20245;-82
2023/06/26 03:54:15;;;;;;;7.83;7.03;;;17.10;99.90;;;;;;5089783;28;20661;-81
2023/06/26 03:56:44;;;;;;;9.10;7.50;;;17.10;99.90;;;;;;5084546;28;20194;-81
2023/06/26 03:59:11;;;;;;;9.93;9.03;;;17.10;99.90;;;;;;5081947;28;20186;-79
2023/06/26 04:01:40;;;;;;;9.63;8.27;;;17.10;99.90;;;;;;5088884;28;20232;-82
2023/06/26 04:04:07;;;;;;;10.20;9.20;;;17.10;99.90;;;;;;5106250;28;20201;-81
2023/06/26 04:06:34;;;;;;;9.83;8.93;;;17.10;99.90;;;;;;5105584;28;20215;-81
2023/06/26 04:09:02;;;;;;;8.70;7.87;;;17.10;99.90;;;;;;5089278;28;20198;-83
2023/06/26 04:11:29;;;;;;;7.73;6.93;;;17.10;99.90;;;;;;5090485;28;20228;-80
2023/06/26 04:13:57;;;;;;;9.10;8.27;;;17.20;99.90;;;;;;5088767;28;20274;-81
2023/06/26 04:16:25;;;;;;;9.00;8.10;;;17.20;99.90;;;;;;5091428;28;20285;-82
2023/06/26 04:18:52;;;;;;;9.83;8.83;;;17.30;99.90;;;;;;5087546;28;20589;-82
2023/06/26 04:21:19;;;;;;;9.77;8.87;;;17.40;99.90;;;;;;5073177;28;20642;-81
2023/06/26 04:23:47;;;;;;;8.77;7.90;;;17.40;99.90;;;;;;5101540;28;20212;-82
2023/06/26 04:26:14;;;;;;;7.87;7.07;;;17.50;99.90;;;;;;5088440;28;20206;-81
2023/06/26 04:28:42;;;;;;;8.70;7.87;;;17.60;99.90;;;;;;5098340;28;20205;-81
2023/06/26 04:31:10;;;;;;;8.13;7.33;;;17.70;99.90;;;;;;5090317;28;20254;-78
2023/06/26 04:33:37;;;;;;;8.80;8.00;;;17.80;99.90;;;;;;5072490;28;20198;-81
2023/06/26 04:36:04;;;;;;;11.87;10.93;;;17.90;99.90;;;;;;5095680;28;20188;-81
2023/06/26 04:38:31;;;;;;;7.87;7.03;;;18.00;99.90;;;;;;5090912;28;20201;-81
2023/06/26 04:40:58;;;;;;;8.40;7.60;;;18.20;99.90;;;;;;5074768;28;20199;-81
2023/06/26 04:43:25;;;;;;;9.70;8.90;;;18.30;99.90;;;;;;5080187;28;20206;-81
2023/06/26 04:45:52;;;;;;;7.47;6.67;;;18.50;99.90;;;;;;5091410;28;20206;-81
2023/06/26 04:48:21;;;;;;;8.90;8.10;;;18.70;99.90;;;;;;5071173;28;20206;-81
2023/06/26 04:50:53;;;;;;;7.27;6.03;;;18.90;99.90;;;;;;5093999;28;20207;-82
2023/06/26 04:53:20;;;;;;;9.13;8.23;;;19.10;99.90;;;;;;5070703;28;20197;-82
2023/06/26 04:55:47;;;;;;;8.40;7.60;;;19.50;99.90;;;;;;5070241;28;20208;-81
2023/06/26 04:58:14;;;;;;;7.57;5.90;;;19.90;99.90;;;;;;5067192;28;20205;-82
2023/06/26 05:00:42;;;;;;;9.50;8.60;;;20.20;99.90;;;;;;5068826;28;20206;-81
2023/06/26 05:03:09;;;;;;;8.93;6.93;;;20.30;99.90;;;;;;5089421;28;20250;-83
2023/06/26 05:05:37;;;;;;;8.23;6.30;;;20.40;99.90;;;;;;5071440;28;20230;-81
2023/06/26 05:08:15;;;;;;;8.17;6.57;;;20.50;99.90;;;;;;5091804;28;20198;-82
2023/06/26 05:10:42;;;;;;;8.97;6.47;;;20.60;99.90;;;;;;5064262;28;20598;-80
2023/06/26 05:13:09;;;;;;;7.77;6.93;;;20.80;99.90;;;;;;5085587;28;20218;-79
2023/06/26 05:15:36;;;;;;;9.40;8.50;;;21.00;99.90;;;;;;5067831;28;20614;-80
2023/06/26 05:18:03;;;;;;;9.87;7.83;;;21.20;99.90;;;;;;5082508;28;20203;-80
2023/06/26 05:20:29;;;;;;;7.93;6.50;;;21.60;99.90;;;;;;5087887;28;20671;-81
2023/06/26 05:22:59;;;;;;;8.10;6.60;;;21.80;99.90;;;;;;5093763;28;20218;-81
2023/06/26 05:25:28;;;;;;;7.70;6.67;;;21.90;99.90;;;;;;5102116;28;20189;-81
2023/06/26 05:27:56;;;;;;;8.20;6.80;;;22.00;99.90;;;;;;5077165;28;20217;-80
2023/06/26 05:30:25;;;;;;;7.80;7.00;;;21.90;99.90;;;;;;5099396;28;20193;-81
2023/06/26 05:32:52;;;;;;;7.07;6.27;;;21.90;99.90;;;;;;5079826;28;20237;-81
2023/06/26 05:35:21;;;;;;;8.37;7.57;;;21.80;99.90;;;;;;5079184;28;20205;-81
2023/06/26 05:37:51;;;;;;;8.27;7.13;;;21.90;99.90;;;;;;5088855;28;20585;-82
2023/06/26 05:40:20;;;;;;;7.83;6.67;;;22.10;99.90;;;;;;5062140;28;20262;-80
2023/06/26 05:42:47;;;;;;;6.90;6.13;;;22.40;99.90;;;;;;5071034;28;20218;-81
2023/06/26 05:45:14;;;;;;;9.70;8.80;;;22.70;99.90;;;;;;5092987;28;20247;-81
2023/06/26 05:47:41;;;;;;;9.20;8.30;;;23.50;99.90;;;;;;5093568;28;20690;-81
2023/06/26 05:50:09;;;;;;;8.10;7.00;;;24.20;99.90;;;;;;5061782;28;20195;-82
2023/06/26 05:52:38;;;;;;;7.50;6.70;;;24.90;99.90;;;;;;5065533;28;20275;-80
2023/06/26 05:55:06;;;;;;;8.53;7.37;;;25.50;99.90;;;;;;5095652;28;20202;-82
2023/06/26 05:57:37;;;;;;;7.90;7.03;;;25.80;99.90;;;;;;5078838;28;20221;-81
2023/06/26 06:00:10;;;;;;;8.57;7.67;;;26.20;99.90;;;;;;5084527;28;20194;-80
2023/06/26 06:02:41;;;;;;;7.67;6.60;;;26.70;99.90;;;;;;5077990;28;20210;-81
2023/06/26 06:05:08;;;;;;;9.23;8.37;;;27.10;99.90;;;;;;5059370;28;20618;-82
2023/06/26 06:07:35;;;;;;;10.67;9.60;;;27.40;99.90;;;;;;5086244;28;20214;-82
2023/06/26 06:10:03;;;;;;;9.93;9.00;;;27.50;99.90;;;;;;5070933;28;20201;-82
2023/06/26 06:12:29;;;;;;;10.27;8.57;;;27.80;99.90;;;;;;5072393;28;20780;-82
2023/06/26 06:14:58;;;;;;;9.10;8.20;;;28.00;99.90;;;;;;5064169;28;20258;-82
2023/06/26 06:17:25;;;;;;;9.77;8.87;;;28.10;99.90;;;;;;5059919;28;20218;-82
2023/06/26 06:19:51;;;;;;;10.03;9.07;;;28.10;99.90;;;;;;5070363;28;20212;-81
2023/06/26 06:22:18;;;;;;;9.90;8.90;;;28.50;99.90;;;;;;5083427;28;20207;-82
2023/06/26 06:24:45;;;;;;;9.63;8.73;;;28.70;99.90;;;;;;5087091;28;20199;-81
2023/06/26 06:27:13;;;;;;;10.27;9.27;;;28.80;99.90;;;;;;5069059;28;20202;-83
2023/06/26 06:29:40;;;;;;;10.73;9.83;;;29.20;99.90;;;;;;5085632;28;20196;-82
2023/06/26 06:32:09;;;;;;;10.47;9.47;;;29.30;99.90;;;;;;5080904;28;20226;-82
2023/06/26 06:34:36;;;;;;;10.03;9.23;;;29.50;99.90;;;;;;5068772;28;20254;-82
2023/06/26 06:37:03;;;;;;;11.03;10.03;;;29.50;99.90;;;;;;5096152;28;20259;-83
2023/06/26 06:39:30;;;;;;;10.13;9.33;;;29.60;99.90;;;;;;5073758;28;20225;-82
2023/06/26 06:41:57;;;;;;;10.27;9.37;;;29.80;99.90;;;;;;5084492;28;20214;-80
2023/06/26 06:44:25;;;;;;;10.97;10.00;;;29.90;99.90;;;;;;5066484;28;20195;-81
2023/06/26 06:46:52;;;;;;;10.83;9.93;;;30.00;99.90;;;;;;5090943;28;20201;-81
2023/06/26 06:49:20;;;;;;;9.30;8.47;;;30.10;99.90;;;;;;5084791;28;20197;-81
2023/06/26 06:51:47;;;;;;;10.50;9.60;;;30.30;99.90;;;;;;5066268;28;20255;-80
2023/06/26 06:54:16;;;;;;;11.20;10.20;;;30.50;99.90;;;;;;5081474;28;20190;-81
2023/06/26 06:56:43;;;;;;;10.30;9.40;;;30.60;99.90;;;;;;5088833;28;20210;-81
2023/06/26 06:59:10;;;;;;;10.03;9.23;;;30.90;99.60;;;;;;5060222;28;20681;-82
2023/06/26 07:01:37;;;;;;;9.87;9.07;;;31.10;99.60;;;;;;5063478;28;20246;-81
2023/06/26 07:04:04;;;;;;;10.65;9.68;;;31.20;98.70;;;;;;5075317;28;20229;-82
2023/06/26 07:06:33;;;;;;;9.33;8.43;;;31.20;98.50;;;;;;5059713;28;20198;-81
2023/06/26 07:08:59;;;;;;;8.83;7.93;;;31.30;98.30;;;;;;5064319;28;20216;-81
2023/06/26 07:11:26;;;;;;;9.03;8.23;;;31.50;98.30;;;;;;5064719;28;20597;-82
2023/06/26 07:13:53;;;;;;;9.10;8.20;;;31.70;97.70;;;;;;5068992;28;20221;-83
2023/06/26 07:16:20;;;;;;;8.75;7.97;;;31.70;97.50;;;;;;5091841;28;20210;-82
2023/06/26 07:18:47;;;;;;;8.35;7.55;;;32.00;97.70;;;;;;5082821;28;20248;-82
2023/06/26 07:21:13;;;;;;;9.02;8.23;;;32.30;97.60;;;;;;5073921;28;20218;-81
2023/06/26 07:23:42;;;;;;;8.40;7.70;;;32.50;96.10;;;;;;5060854;28;20263;-81
2023/06/26 07:26:08;;;;;;;8.38;7.68;;;32.80;96.60;;;;;;5061275;28;20625;-81
2023/06/26 07:28:35;;;;;;;8.80;7.90;;;32.90;95.90;;;;;;5055965;28;20191;-82
2023/06/26 07:31:02;;;;;;;8.95;8.05;;;33.00;96.00;;;;;;5062474;28;20230;-82
2023/06/26 07:33:29;;;;;;;9.48;8.55;;;33.00;95.10;;;;;;5076304;28;20247;-81
2023/06/26 07:35:55;;;;;;;9.20;8.35;;;33.10;95.40;;;;;;5059746;28;20588;-81
2023/06/26 07:38:22;;;;;;;8.63;7.78;;;33.10;95.50;;;;;;5059839;28;20218;-80
2023/06/26 07:40:51;;;;;;;8.32;7.63;;;33.40;95.10;;;;;;5055913;28;20221;-81
2023/06/26 07:43:17;;;;;;;8.63;7.82;;;33.60;95.20;;;;;;5074235;28;20214;-81
2023/06/26 07:45:44;;;;;;;8.40;7.70;;;33.80;94.40;;;;;;5058847;28;20198;-81
2023/06/26 07:48:11;;;;;;;8.63;7.85;;;33.80;93.50;;;;;;5080286;28;20203;-81
2023/06/26 07:50:38;;;;;;;9.40;8.60;;;33.90;92.80;;;;;;5062256;28;20231;-81
2023/06/26 07:53:05;;;;;;;9.18;8.45;;;33.90;93.60;;;;;;5058723;28;20222;-82
2023/06/26 07:55:32;;;;;;;9.63;8.82;;;33.90;92.60;;;;;;5062019;28;20294;-81
2023/06/26 07:58:01;;;;;;;10.15;9.35;;;33.90;92.00;;;;;;5080928;28;20699;-81
2023/06/26 08:00:28;;;;;;;9.55;8.75;;;34.00;91.60;;;;;;5059643;28;20227;-81
2023/06/26 08:02:59;;;;;;;8.65;7.88;;;34.00;92.20;;;;;;5077095;28;20241;-83
2023/06/26 08:05:27;;;;;;;9.73;8.82;;;34.10;91.60;;;;;;5080875;28;20190;-81
2023/06/26 08:07:54;;;;;;;9.55;8.85;;;34.10;91.60;;;;;;5069191;28;20214;-81
2023/06/26 08:10:21;;;;;;;9.30;8.60;;;34.10;91.20;;;;;;5061429;28;20206;-82
2023/06/26 08:12:50;;;;;;;9.27;8.50;;;34.00;91.30;;;;;;5066666;28;20237;-80
2023/06/26 08:15:18;;;;;;;8.27;7.57;;;34.10;91.50;;;;;;5057343;28;20684;-80
2023/06/26 08:17:46;;;;;;;8.65;7.82;;;34.20;91.30;;;;;;5089006;28;20214;-81
2023/06/26 08:20:13;;;;;;;8.43;7.72;;;34.40;90.60;;;;;;5059846;28;20289;-81
2023/06/26 08:22:40;;;;;;;7.97;7.28;;;34.40;90.70;;;;;;5085332;28;20215;-81
2023/06/26 08:25:07;;;;;;;8.25;7.45;;;34.50;90.90;;;;;;5057251;28;20206;-82
2023/06/26 08:27:34;;;;;;;8.30;7.60;;;34.60;90.90;;;;;;5060748;28;20213;-79
2023/06/26 08:30:01;;;;;;;9.88;7.53;;;34.80;90.40;;;;;;5072755;28;20592;-80
2023/06/26 08:32:29;;;;;;;7.63;6.93;;;34.70;90.20;;;;;;5081865;28;20256;-81
2023/06/26 08:34:56;;;;;;;7.93;7.00;;;34.80;88.80;;;;;;5064457;28;20198;-80
2023/06/26 08:37:22;;;;;;;8.02;7.32;;;35.00;88.60;;;;;;5077531;28;20202;-80
2023/06/26 08:39:49;;;;;;;7.82;7.22;;;35.00;90.30;;;;;;5060585;28;20262;-81
2023/06/26 08:42:17;;;;;;;7.88;7.25;;;35.00;88.70;;;;;;5075396;28;20214;-80
2023/06/26 08:44:43;;;;;;;9.18;8.32;;;35.20;87.00;;;;;;5085495;28;20197;-80
2023/06/26 08:47:13;;;;;;;8.30;7.50;;;35.20;89.80;;;;;;5086538;28;20220;-81
2023/06/26 08:49:56;;;;;;;7.90;7.25;;;35.20;87.50;;;;;;5080466;28;20198;-81
2023/06/26 08:52:25;;;;;;;8.80;8.10;;;35.20;87.90;;;;;;5063212;28;20287;-80
2023/06/26 08:54:59;;;;;;;8.70;8.00;;;35.40;88.20;;;;;;5081793;28;20204;-81
2023/06/26 08:57:27;;;;;;;9.05;8.35;;;35.60;87.20;;;;;;5070531;28;20205;-81
2023/06/26 08:59:55;;;;;;;8.75;8.05;;;35.80;88.20;;;;;;5085494;28;20201;-81
2023/06/26 09:02:22;;;;;;;8.60;7.90;;;36.10;85.00;;;;;;5064058;28;20276;-81
2023/06/26 09:04:50;;;;;;;8.82;8.10;;;36.00;83.90;;;;;;5060012;28;20285;-82
2023/06/26 09:07:17;;;;;;;8.68;7.88;;;35.90;84.60;;;;;;5063708;28;20252;-78
2023/06/26 09:09:44;;;;;;;7.78;7.18;;;36.00;84.40;;;;;;5083044;28;20253;-78
2023/06/26 09:12:11;;;;;;;7.88;7.28;;;35.80;85.50;;;;;;5057505;28;20226;-78
2023/06/26 09:14:38;;;;;;;7.53;6.93;;;35.80;85.00;;;;;;5063189;28;20251;-77
2023/06/26 09:17:05;;;;;;;8.02;7.40;;;36.00;82.70;;;;;;5063732;28;20232;-78
2023/06/26 09:19:32;;;;;;;8.13;7.43;;;35.70;83.10;;;;;;5059744;28;20198;-78
2023/06/26 09:22:00;;;;;;;8.07;7.47;;;35.60;83.70;;;;;;5061728;28;20227;-77
2023/06/26 09:24:27;;;;;;;8.32;7.30;;;35.90;83.90;;;;;;5071268;28;20713;-78
2023/06/26 09:26:55;;;;;;;7.78;7.18;;;36.00;86.00;;;;;;5079277;28;20219;-78
2023/06/26 09:29:22;;;;;;;8.40;7.70;;;36.20;83.60;;;;;;5073466;28;20213;-78
2023/06/26 09:31:48;;;;;;;8.55;7.85;;;36.40;83.00;;;;;;5095564;28;20210;-78
2023/06/26 09:34:15;;;;;;;9.10;8.40;;;36.30;82.30;;;;;;5068508;28;20202;-77
2023/06/26 09:36:46;;;;;;;9.23;8.35;;;36.30;81.20;;;;;;5062610;28;20738;-78
2023/06/26 09:39:15;;;;;;;8.70;8.00;;;36.40;81.60;;;;;;5061018;28;20213;-77
2023/06/26 09:41:42;;;;;;;8.57;7.78;;;36.60;80.00;;;;;;5061893;28;20283;-77
2023/06/26 09:44:14;;;;;;;8.50;7.63;;;36.90;79.70;;;;;;5076448;28;20278;-77
2023/06/26 09:46:41;;;;;;;8.65;7.85;;;36.80;78.10;;;;;;5061543;28;20245;-77
2023/06/26 09:49:10;;;;;;;7.72;7.03;;;36.90;79.70;;;;;;5081675;28;20649;-77
2023/06/26 09:51:38;;;;;;;7.80;7.15;;;36.80;79.90;;;;;;5077683;28;20238;-76
2023/06/26 09:54:06;;;;;;;7.80;7.20;;;36.80;78.30;;;;;;5086229;28;20687;-81
2023/06/26 09:56:35;;;;;;;8.73;8.05;;;36.80;78.20;;;;;;5079490;28;20199;-80
2023/06/26 09:59:06;;;;;;;8.77;7.88;;;37.00;77.10;;;;;;5063039;28;20223;-83
2023/06/26 10:01:34;;;;;;;8.80;8.10;;;37.00;77.00;;;;;;5085564;28;20920;-81
2023/06/26 10:04:00;;;;;;;8.50;7.70;;;36.90;77.00;;;;;;5067274;28;20229;-80
2023/06/26 10:06:31;;;;;;;8.10;7.50;;;36.90;77.90;;;;;;5072487;28;20264;-81
2023/06/26 10:09:00;;;;;;;8.30;7.60;;;36.90;78.40;;;;;;5080928;28;20199;-81
2023/06/26 10:11:33;;;;;;;8.52;7.85;;;36.90;79.20;;;;;;5066047;28;20599;-81
2023/06/26 10:14:05;;;;;;;8.52;7.82;;;37.00;79.40;;;;;;5064211;28;20202;-80
2023/06/26 10:16:33;;;;;;;9.02;8.20;;;37.10;76.00;;;;;;5079729;28;20286;-80
2023/06/26 10:19:13;;;;;;;9.02;8.23;;;37.10;77.70;;;;;;5081468;28;20583;-80
2023/06/26 10:21:41;;;;;;;8.50;7.80;;;36.90;76.60;;;;;;5077640;28;20697;-77
2023/06/26 10:24:08;;;;;;;8.77;8.02;;;37.10;78.40;;;;;;5060505;28;20206;-77
2023/06/26 10:26:39;;;;;;;8.00;7.40;;;37.30;78.10;;;;;;5078724;28;20190;-78
2023/06/26 10:29:08;;;;;;;8.00;7.28;;;37.40;76.10;;;;;;5081465;28;20251;-77
2023/06/26 10:31:36;;;;;;;8.20;7.50;;;37.30;74.00;;;;;;5075254;28;20279;-82
2023/06/26 10:34:03;;;;;;;7.80;7.20;;;37.00;74.10;;;;;;5085481;28;20213;-80
2023/06/26 10:36:32;;;;;;;8.65;7.85;;;36.40;74.10;;;;;;5080018;28;20186;-77
2023/06/26 10:39:04;;;;;;;8.18;7.57;;;35.90;76.70;;;;;;5083230;28;20670;-78
2023/06/26 10:41:37;;;;;;;7.70;7.03;;;35.60;77.30;;;;;;5087421;28;20220;-78
2023/06/26 10:44:10;;;;;;;7.65;7.05;;;35.30;76.90;;;;;;5056011;28;20297;-78
2023/06/26 10:46:53;;;;;;;8.52;7.82;;;35.10;78.10;;;;;;5084866;28;20193;-76
2023/06/26 10:49:20;;;;;;;9.05;8.35;;;34.60;79.40;;;;;;5093966;28;20193;-75
2023/06/26 10:51:49;;;;;;;8.27;7.50;;;34.30;78.50;;;;;;5073900;28;20267;-76
2023/06/26 10:54:16;;;;;;;8.27;7.57;;;34.10;80.80;;;;;;5079657;28;20272;-77
2023/06/26 10:56:44;;;;;;;8.90;8.10;;;34.00;82.80;;;;;;5086650;28;20267;-77
2023/06/26 10:59:20;;;;;;;9.05;8.25;;;33.70;81.60;;;;;;5060519;28;20222;-78
2023/06/26 11:01:54;;;;;;;15.15;8.48;;;33.50;83.40;;;;;;5068540;28;20221;-78
2023/06/26 11:04:37;;;;;;;8.75;7.95;;;33.70;84.50;;;;;;5060755;28;20289;-78
2023/06/26 11:07:18;;;;;;;10.02;9.23;;;34.10;84.20;;;;;;5092578;28;20204;-77
2023/06/26 11:09:56;;;;;;;8.95;8.25;;;34.10;80.90;;;;;;5074421;28;20221;-77
2023/06/26 11:12:40;;;;;;;8.82;8.13;;;33.80;80.20;;;;;;5083509;28;20890;-78
2023/06/26 11:15:10;;;;;;;9.60;8.70;;;33.30;83.00;;;;;;5080420;28;20684;-77
2023/06/26 11:17:40;;;;;;;9.63;8.93;;;32.80;86.50;;;;;;5079965;28;20297;-79
2023/06/26 11:20:10;;;;;;;9.77;9.07;;;32.60;86.40;;;;;;5077983;28;20547;-77
2023/06/26 11:22:38;;;;;;;8.60;8.00;;;32.90;87.00;;;;;;5090652;28;20259;-78
2023/06/26 11:25:07;;;;;;;9.55;8.77;;;33.20;87.90;;;;;;5082380;28;20202;-77
2023/06/26 11:27:38;;;;;;;9.65;8.73;;;33.50;88.60;;;;;;5083534;28;20231;-80
2023/06/26 11:30:06;;;;;;;13.30;9.15;;;33.50;86.40;;;;;;5097519;28;20193;-78
2023/06/26 11:32:35;;;;;;;9.00;8.23;;;33.60;85.80;;;;;;5076775;28;20230;-80
2023/06/26 11:35:01;;;;;;;9.52;8.60;;;33.60;86.40;;;;;;5058536;28;20580;-81
2023/06/26 11:37:28;;;;;;;7.95;7.25;;;33.80;86.30;;;;;;5075597;28;20198;-82
2023/06/26 11:39:56;;;;;;;8.70;7.80;;;33.90;87.10;;;;;;5069203;28;20564;-81
2023/06/26 11:42:24;;;;;;;9.35;8.52;;;34.00;86.10;;;;;;5076130;28;20565;-81
2023/06/26 11:44:51;;;;;;;9.50;8.70;;;34.00;87.10;;;;;;5095606;28;20197;-81
2023/06/26 11:47:20;;;;;;;8.90;8.20;;;33.90;85.90;;;;;;5068870;28;20676;-80
2023/06/26 11:49:49;;;;;;;9.07;8.27;;;33.70;87.40;;;;;;5071042;28;20202;-81
2023/06/26 11:52:16;;;;;;;9.85;8.95;;;33.60;88.00;;;;;;5069502;28;20268;-81
2023/06/26 11:54:44;;;;;;;9.43;8.63;;;33.40;87.30;;;;;;5070974;28;20200;-83
2023/06/26 11:57:15;;;;;;;9.00;8.23;;;33.40;87.60;;;;;;5073112;28;20202;-81
2023/06/26 11:59:42;;;;;;;9.27;8.45;;;33.30;87.30;;;;;;5072966;28;20218;-81
2023/06/26 12:02:11;;;;;;;8.43;7.60;;;33.30;87.40;;;;;;5086146;28;20222;-80
2023/06/26 12:04:39;;;;;;;9.02;8.13;;;33.30;86.50;;;;;;5075429;28;20617;-78
2023/06/26 12:07:09;;;;;;;8.48;7.68;;;33.40;86.80;;;;;;5066170;28;20210;-78
2023/06/26 12:09:40;;;;;;;8.73;8.02;;;33.50;87.80;;;;;;5076430;28;20201;-81
2023/06/26 12:12:08;;;;;;;8.48;7.78;;;33.40;86.70;;;;;;5096284;28;20624;-80
2023/06/26 12:14:35;;;;;;;9.18;8.38;;;33.50;86.80;;;;;;5075812;28;20198;-80
2023/06/26 12:17:16;;;;;;;;;;;;;;;;;;;;;
2023/06/26 12:19:47;;;;;;;9.35;8.55;;;33.40;87.10;;;;;;5081646;28;20222;-78
2023/06/26 12:22:16;;;;;;;9.30;8.50;;;33.50;86.40;;;;;;5077309;28;20731;-77
2023/06/26 12:24:43;;;;;;;10.10;8.77;;;33.60;88.00;;;;;;5095404;28;20224;-77
2023/06/26 12:27:11;;;;;;;9.80;9.00;;;33.50;85.80;;;;;;5094808;28;20190;-77
2023/06/26 12:29:40;;;;;;;9.32;8.52;;;33.40;85.50;;;;;;5075763;28;20267;-76
2023/06/26 12:32:10;;;;;;;9.48;8.63;;;33.30;87.10;;;;;;5068784;28;20233;-77
2023/06/26 12:34:38;;;;;;;9.30;8.60;;;33.00;86.80;;;;;;5094513;28;20216;-77
2023/06/26 12:37:06;;;;;;;9.52;8.73;;;32.80;87.70;;;;;;5094199;28;20219;-77
2023/06/26 12:39:48;;;;;;;10.00;9.00;;;32.70;88.10;;;;;;5093439;28;20213;-76
2023/06/26 12:42:16;;;;;;;9.07;8.27;;;32.60;89.30;;;;;;5075721;28;20226;-76
2023/06/26 12:44:43;;;;;;;9.65;8.75;;;32.60;89.50;;;;;;5075693;28;20704;-76
2023/06/26 12:47:10;;;;;;;10.05;9.15;;;32.50;89.00;;;;;;5093489;28;20227;-76
2023/06/26 12:49:37;;;;;;;8.98;8.18;;;32.40;88.60;;;;;;5088023;28;20243;-76
2023/06/26 12:52:06;;;;;;;9.15;8.45;;;32.30;90.30;;;;;;5093400;28;20218;-77